createdAt,value
2023-02-06T00:01:38.448Z,0.60
2023-02-06T00:04:05.906Z,0.60
2023-02-06T00:06:33.970Z,0.50
2023-02-06T00:09:01.309Z,0.50
2023-02-06T00:11:28.804Z,0.60
2023-02-06T00:13:56.066Z,0.60
2023-02-06T00:16:29.152Z,0.50
2023-02-06T00:18:58.272Z,0.50
2023-02-06T00:21:27.238Z,0.50
2023-02-06T00:23:56.786Z,0.50
2023-02-06T00:26:24.851Z,0.50
2023-02-06T00:28:52.672Z,0.50
2023-02-06T00:31:19.967Z,0.40
2023-02-06T00:33:47.438Z,0.30
2023-02-06T00:36:14.902Z,0.30
2023-02-06T00:38:42.190Z,0.30
2023-02-06T00:41:09.441Z,0.10
2023-02-06T00:43:37.258Z,0.10
2023-02-06T00:46:04.732Z,0.00
2023-02-06T00:48:32.174Z,0.10
2023-02-06T00:50:59.506Z,0.00
2023-02-06T00:53:26.844Z,0.00
2023-02-06T00:55:54.118Z,0.10
2023-02-06T00:58:22.674Z,0.10
2023-02-06T01:00:49.969Z,0.10
2023-02-06T01:03:17.625Z,0.00
2023-02-06T01:05:44.913Z,-0.10
2023-02-06T01:08:12.324Z,-0.20
2023-02-06T01:10:43.797Z,-0.30
2023-02-06T01:13:11.297Z,-0.30
2023-02-06T01:15:41.544Z,-0.30
2023-02-06T01:18:08.921Z,-0.40
2023-02-06T01:20:36.251Z,-0.30
2023-02-06T01:23:04.529Z,-0.20
2023-02-06T01:25:32.245Z,-0.20
2023-02-06T01:27:59.485Z,-0.20
2023-02-06T01:30:26.931Z,-0.20
2023-02-06T01:32:54.241Z,-0.30
2023-02-06T01:35:21.658Z,-0.30
2023-02-06T01:37:48.900Z,-0.30
2023-02-06T01:40:17.197Z,-0.30
2023-02-06T01:42:44.581Z,-0.30
2023-02-06T01:45:35.311Z,-0.20
2023-02-06T01:48:08.586Z,-0.20
2023-02-06T01:50:38.510Z,-0.20
2023-02-06T01:53:07.289Z,-0.40
2023-02-06T01:55:37.817Z,-0.50
2023-02-06T01:58:05.774Z,-0.50
2023-02-06T02:00:33.192Z,-0.50
2023-02-06T02:03:01.640Z,-0.40
2023-02-06T02:05:33.022Z,-0.40
2023-02-06T02:08:12.578Z,-0.40
2023-02-06T02:10:40.468Z,-0.40
2023-02-06T02:13:07.771Z,-0.40
2023-02-06T02:15:48.905Z,-0.40
2023-02-06T02:18:38.127Z,-0.40
2023-02-06T02:21:24.217Z,-0.40
2023-02-06T02:23:57.383Z,-0.10
2023-02-06T02:26:29.853Z,0.30
2023-02-06T02:28:57.063Z,0.20
2023-02-06T02:31:27.179Z,0.00
2023-02-06T02:34:06.289Z,0.00
2023-02-06T02:37:05.278Z,0.10
2023-02-06T02:39:55.611Z,0.00
2023-02-06T02:42:34.883Z,0.00
2023-02-06T02:45:45.631Z,-0.10
2023-02-06T02:48:22.369Z,0.00
2023-02-06T02:50:50.165Z,0.00
2023-02-06T02:53:17.516Z,0.00
2023-02-06T02:55:45.764Z,0.00
2023-02-06T02:58:19.276Z,0.00
2023-02-06T03:00:52.919Z,0.00
2023-02-06T03:03:28.683Z,0.10
2023-02-06T03:06:19.355Z,0.10
2023-02-06T03:08:59.000Z,0.10
2023-02-06T03:11:27.063Z,0.10
2023-02-06T03:14:06.155Z,0.10
2023-02-06T03:16:38.705Z,0.10
2023-02-06T03:19:18.542Z,0.00
2023-02-06T03:21:47.422Z,0.00
2023-02-06T03:24:19.641Z,0.00
2023-02-06T03:26:50.773Z,-0.10
2023-02-06T03:29:19.585Z,0.00
2023-02-06T03:31:53.221Z,0.00
2023-02-06T03:34:28.951Z,0.10
2023-02-06T03:36:56.482Z,0.10
2023-02-06T03:39:23.995Z,0.10
2023-02-06T03:41:51.848Z,0.20
2023-02-06T03:44:24.055Z,0.20
2023-02-06T03:46:53.450Z,0.10
2023-02-06T03:49:24.355Z,0.10
2023-02-06T03:52:06.911Z,0.20
2023-02-06T03:54:39.240Z,0.20
2023-02-06T03:57:12.108Z,0.10
2023-02-06T03:59:39.426Z,0.00
2023-02-06T04:02:07.165Z,0.00
2023-02-06T04:04:39.764Z,-0.10
2023-02-06T04:07:12.750Z,-0.10
2023-02-06T04:09:40.790Z,-0.20
2023-02-06T04:12:08.999Z,-0.20
2023-02-06T04:14:36.821Z,-0.10
2023-02-06T04:17:05.090Z,0.10
2023-02-06T04:19:33.315Z,0.10
2023-02-06T04:22:01.205Z,0.20
2023-02-06T04:24:30.852Z,0.30
2023-02-06T04:26:58.565Z,0.30
2023-02-06T04:29:26.152Z,0.40
2023-02-06T04:31:53.535Z,0.50
2023-02-06T04:34:20.752Z,0.60
2023-02-06T04:36:48.172Z,0.60
2023-02-06T04:39:15.504Z,0.70
2023-02-06T04:41:42.739Z,0.70
2023-02-06T04:44:10.003Z,0.70
2023-02-06T04:46:37.269Z,0.70
2023-02-06T04:49:04.761Z,0.70
2023-02-06T04:51:32.154Z,0.70
2023-02-06T04:53:59.430Z,0.60
2023-02-06T04:56:26.680Z,0.60
2023-02-06T04:58:53.977Z,0.50
2023-02-06T05:01:21.872Z,0.50
2023-02-06T05:03:49.418Z,0.50
2023-02-06T05:06:16.908Z,0.50
2023-02-06T05:08:44.266Z,0.60
2023-02-06T05:11:11.633Z,0.60
2023-02-06T05:13:38.909Z,0.50
2023-02-06T05:16:11.424Z,0.40
2023-02-06T05:18:39.238Z,0.40
2023-02-06T05:21:07.033Z,0.40
2023-02-06T05:23:34.526Z,0.30
2023-02-06T05:26:01.966Z,0.30
2023-02-06T05:28:29.909Z,0.30
2023-02-06T05:30:57.382Z,0.40
2023-02-06T05:33:24.698Z,0.40
2023-02-06T05:35:51.938Z,0.40
2023-02-06T05:38:19.554Z,0.50
2023-02-06T05:40:50.195Z,0.40
2023-02-06T05:43:17.548Z,0.40
2023-02-06T05:45:44.746Z,0.50
2023-02-06T05:48:12.114Z,0.50
2023-02-06T05:50:39.347Z,0.60
2023-02-06T05:53:16.526Z,0.70
2023-02-06T05:55:43.831Z,0.80
2023-02-06T05:58:11.585Z,0.80
2023-02-06T06:00:38.966Z,0.90
2023-02-06T06:03:06.230Z,0.90
2023-02-06T06:05:33.722Z,1.00
2023-02-06T06:08:01.249Z,1.00
2023-02-06T06:10:28.980Z,1.00
2023-02-06T06:12:57.051Z,1.10
2023-02-06T06:15:24.293Z,1.10
2023-02-06T06:17:51.567Z,1.10
2023-02-06T06:20:19.243Z,1.20
2023-02-06T06:22:46.568Z,1.30
2023-02-06T06:25:13.780Z,1.40
2023-02-06T06:27:41.166Z,1.50
2023-02-06T06:30:09.310Z,1.60
2023-02-06T06:32:37.127Z,1.60
2023-02-06T06:35:04.691Z,1.70
2023-02-06T06:37:31.982Z,1.80
2023-02-06T06:39:59.198Z,1.90
2023-02-06T06:42:26.518Z,1.90
2023-02-06T06:44:53.732Z,1.90
2023-02-06T06:47:21.061Z,1.90
2023-02-06T06:49:48.400Z,1.90
2023-02-06T06:52:24.514Z,2.00
2023-02-06T06:54:53.314Z,2.00
2023-02-06T06:57:22.029Z,2.00
2023-02-06T06:59:50.088Z,2.00
2023-02-06T07:02:17.558Z,2.00
2023-02-06T07:04:44.915Z,2.10
2023-02-06T07:07:12.321Z,2.10
2023-02-06T07:09:39.662Z,2.20
2023-02-06T07:12:07.163Z,2.10
2023-02-06T07:14:34.411Z,2.10
2023-02-06T07:17:01.801Z,2.10
2023-02-06T07:19:29.106Z,2.20
2023-02-06T07:21:56.418Z,2.10
2023-02-06T07:24:23.780Z,2.10
2023-02-06T07:26:51.018Z,2.20
2023-02-06T07:29:18.499Z,2.20
2023-02-06T07:31:45.900Z,2.20
2023-02-06T07:34:13.162Z,2.10
2023-02-06T07:36:40.538Z,2.20
2023-02-06T07:39:07.778Z,2.20
2023-02-06T07:41:35.072Z,2.20
2023-02-06T07:44:02.391Z,2.30
2023-02-06T07:46:29.659Z,2.30
2023-02-06T07:48:57.596Z,2.30
2023-02-06T07:51:24.871Z,2.30
2023-02-06T07:53:52.151Z,2.40
2023-02-06T07:56:23.101Z,2.40
2023-02-06T07:58:51.846Z,2.40
2023-02-06T08:01:20.218Z,2.40
2023-02-06T08:03:50.683Z,2.40
2023-02-06T08:06:19.103Z,2.50
2023-02-06T08:08:46.379Z,2.50
2023-02-06T08:11:16.252Z,2.60
2023-02-06T08:13:43.837Z,2.50
2023-02-06T08:16:14.566Z,2.50
2023-02-06T08:18:42.269Z,2.60
2023-02-06T08:21:18.622Z,2.70
2023-02-06T08:23:46.234Z,2.70
2023-02-06T08:26:16.031Z,2.70
2023-02-06T08:28:45.827Z,2.80
2023-02-06T08:31:18.966Z,2.80
2023-02-06T08:33:46.488Z,2.90
2023-02-06T08:36:15.979Z,2.90
2023-02-06T08:38:43.305Z,3.00
2023-02-06T08:41:22.357Z,3.10
2023-02-06T08:43:51.178Z,3.00
2023-02-06T08:46:20.279Z,3.10
2023-02-06T08:48:47.635Z,3.10
2023-02-06T08:51:15.356Z,3.10
2023-02-06T08:53:42.776Z,3.20
2023-02-06T08:56:12.148Z,3.20
2023-02-06T08:58:40.085Z,3.30
2023-02-06T09:01:09.772Z,3.40
2023-02-06T09:03:37.115Z,3.40
2023-02-06T09:06:10.294Z,3.50
2023-02-06T09:08:39.210Z,3.60
2023-02-06T09:11:08.572Z,3.80
2023-02-06T09:13:36.007Z,3.90
2023-02-06T09:16:04.254Z,3.90
2023-02-06T09:18:31.595Z,4.10
2023-02-06T09:21:13.280Z,4.30
2023-02-06T09:23:45.839Z,4.40
2023-02-06T09:26:23.144Z,4.40
2023-02-06T09:28:55.349Z,4.40
2023-02-06T09:31:22.688Z,4.40
2023-02-06T09:33:50.003Z,4.40
2023-02-06T09:36:19.570Z,4.40
2023-02-06T09:38:50.857Z,4.40
2023-02-06T09:41:31.615Z,4.60
2023-02-06T09:44:07.552Z,4.90
2023-02-06T09:46:36.969Z,5.10
2023-02-06T09:49:13.640Z,5.00
2023-02-06T09:52:01.132Z,4.90
2023-02-06T09:54:50.306Z,4.90
2023-02-06T09:57:25.802Z,4.80
2023-02-06T10:00:01.108Z,4.80
2023-02-06T10:02:41.202Z,4.70
2023-02-06T10:05:14.309Z,4.70
2023-02-06T10:08:06.335Z,4.80
2023-02-06T10:10:46.336Z,4.80
2023-02-06T10:13:22.388Z,4.60
2023-02-06T10:15:54.437Z,4.70
2023-02-06T10:18:29.649Z,4.70
2023-02-06T10:21:12.485Z,4.90
2023-02-06T10:23:49.880Z,5.20
2023-02-06T10:26:19.174Z,5.60
2023-02-06T10:28:55.967Z,5.50
2023-02-06T10:31:50.511Z,5.60
2023-02-06T10:34:27.519Z,5.70
2023-02-06T10:37:06.770Z,5.70
2023-02-06T10:40:04.486Z,5.90
2023-02-06T10:42:40.733Z,5.90
2023-02-06T10:45:25.278Z,5.80
2023-02-06T10:48:11.991Z,5.40
2023-02-06T10:50:48.507Z,5.40
2023-02-06T10:53:28.793Z,5.40
2023-02-06T10:56:16.478Z,5.20
2023-02-06T10:58:50.073Z,5.20
2023-02-06T11:01:25.957Z,5.00
2023-02-06T11:04:04.736Z,4.90
2023-02-06T11:06:32.755Z,5.10
2023-02-06T11:09:00.287Z,5.10
2023-02-06T11:11:36.129Z,5.20
2023-02-06T11:14:28.669Z,5.20
2023-02-06T11:16:59.546Z,5.50
2023-02-06T11:19:31.702Z,5.90
2023-02-06T11:22:05.748Z,6.00
2023-02-06T11:24:34.291Z,6.00
2023-02-06T11:27:11.504Z,5.90
2023-02-06T11:29:45.592Z,5.70
2023-02-06T11:32:27.732Z,5.70
2023-02-06T11:34:58.998Z,5.60
2023-02-06T11:37:35.573Z,5.60
2023-02-06T11:40:25.114Z,5.80
2023-02-06T11:43:12.566Z,6.00
2023-02-06T11:45:41.215Z,6.70
2023-02-06T11:48:31.074Z,7.10
2023-02-06T11:50:58.591Z,7.20
2023-02-06T11:53:26.147Z,7.70
2023-02-06T11:56:22.895Z,7.90
2023-02-06T11:59:07.140Z,8.50
2023-02-06T12:01:43.862Z,8.50
2023-02-06T12:04:31.904Z,8.20
2023-02-06T12:07:05.786Z,7.80
2023-02-06T12:09:33.059Z,7.30
2023-02-06T12:12:24.335Z,7.50
2023-02-06T12:15:00.118Z,7.80
2023-02-06T12:17:37.312Z,7.80
2023-02-06T12:20:20.519Z,7.60
2023-02-06T12:22:57.369Z,7.70
2023-02-06T12:25:38.838Z,7.70
2023-02-06T12:28:13.973Z,7.60
2023-02-06T12:31:04.910Z,7.40
2023-02-06T12:34:04.572Z,7.40
2023-02-06T12:36:38.351Z,7.30
2023-02-06T12:39:19.603Z,7.20
2023-02-06T12:41:52.998Z,7.00
2023-02-06T12:44:32.341Z,7.00
2023-02-06T12:47:13.664Z,7.00
2023-02-06T12:50:02.904Z,7.00
2023-02-06T12:52:39.090Z,7.00
2023-02-06T12:55:18.584Z,7.00
2023-02-06T12:57:46.014Z,6.60
2023-02-06T13:00:41.251Z,6.60
2023-02-06T13:03:20.967Z,6.50
2023-02-06T13:05:52.551Z,6.60
2023-02-06T13:08:31.000Z,6.60
2023-02-06T13:11:08.153Z,6.50
2023-02-06T13:13:40.268Z,6.40
2023-02-06T13:16:09.056Z,6.30
2023-02-06T13:18:44.470Z,6.30
2023-02-06T13:21:29.702Z,6.30
2023-02-06T13:24:03.161Z,6.40
2023-02-06T13:27:03.874Z,6.50
2023-02-06T13:29:33.536Z,6.60
2023-02-06T13:32:18.377Z,6.70
2023-02-06T13:35:07.540Z,6.60
2023-02-06T13:37:39.469Z,6.50
2023-02-06T13:40:25.781Z,6.40
2023-02-06T13:43:02.734Z,6.20
2023-02-06T13:45:49.308Z,6.30
2023-02-06T13:48:47.011Z,6.30
2023-02-06T13:51:29.361Z,6.30
2023-02-06T13:54:34.273Z,6.30
2023-02-06T13:57:19.080Z,6.40
2023-02-06T13:59:51.781Z,6.60
2023-02-06T14:02:56.297Z,6.60
2023-02-06T14:05:36.842Z,6.70
2023-02-06T14:08:24.609Z,6.80
2023-02-06T14:11:20.109Z,6.80
2023-02-06T14:14:16.556Z,6.80
2023-02-06T14:17:09.833Z,6.80
2023-02-06T14:19:42.876Z,6.60
2023-02-06T14:22:36.859Z,6.40
2023-02-06T14:25:13.227Z,6.30
2023-02-06T14:28:12.114Z,6.30
2023-02-06T14:31:04.990Z,6.40
2023-02-06T14:33:54.517Z,6.50
2023-02-06T14:36:51.237Z,6.60
2023-02-06T14:39:36.350Z,6.50
2023-02-06T14:42:13.181Z,6.50
2023-02-06T14:44:42.834Z,6.50
2023-02-06T14:47:20.553Z,6.40
2023-02-06T14:49:48.935Z,6.40
2023-02-06T14:52:21.617Z,6.30
2023-02-06T14:54:49.116Z,6.40
2023-02-06T14:57:26.730Z,6.40
2023-02-06T15:00:05.884Z,6.40
2023-02-06T15:02:35.996Z,6.40
2023-02-06T15:05:05.075Z,6.30
2023-02-06T15:07:37.821Z,6.20
2023-02-06T15:10:13.213Z,6.10
2023-02-06T15:12:41.294Z,6.10
2023-02-06T15:15:20.435Z,6.10
2023-02-06T15:18:16.257Z,6.10
2023-02-06T15:20:45.851Z,6.10
2023-02-06T15:23:44.772Z,6.10
2023-02-06T15:26:43.354Z,6.00
2023-02-06T15:29:23.014Z,5.90
2023-02-06T15:31:53.037Z,5.90
2023-02-06T15:34:24.290Z,5.60
2023-02-06T15:36:52.391Z,5.40
2023-02-06T15:39:20.247Z,5.30
2023-02-06T15:41:50.486Z,5.30
2023-02-06T15:44:38.165Z,5.30
2023-02-06T15:47:11.131Z,5.30
2023-02-06T15:49:42.392Z,5.30
2023-02-06T15:52:15.249Z,5.40
2023-02-06T15:54:45.008Z,5.50
2023-02-06T15:57:27.758Z,5.50
2023-02-06T15:59:56.922Z,5.50
2023-02-06T16:02:34.348Z,5.50
2023-02-06T16:05:02.657Z,5.40
2023-02-06T16:07:35.908Z,5.40
2023-02-06T16:10:20.605Z,5.40
2023-02-06T16:12:48.522Z,5.30
2023-02-06T16:15:38.622Z,5.20
2023-02-06T16:18:39.490Z,5.10
2023-02-06T16:21:15.847Z,4.90
2023-02-06T16:23:50.740Z,4.70
2023-02-06T16:26:19.456Z,4.50
2023-02-06T16:29:29.942Z,4.20
2023-02-06T16:32:02.577Z,3.80
2023-02-06T16:34:36.721Z,3.60
2023-02-06T16:37:10.780Z,3.50
2023-02-06T16:39:42.218Z,3.30
2023-02-06T16:42:34.216Z,3.20
2023-02-06T16:45:06.475Z,3.00
2023-02-06T16:47:33.834Z,2.90
2023-02-06T16:50:01.264Z,2.90
2023-02-06T16:52:31.636Z,2.80
2023-02-06T16:55:00.084Z,2.70
2023-02-06T16:57:39.101Z,2.70
2023-02-06T17:00:33.125Z,2.50
2023-02-06T17:03:00.837Z,2.50
2023-02-06T17:05:28.985Z,2.60
2023-02-06T17:07:56.425Z,2.50
2023-02-06T17:10:26.168Z,2.50
2023-02-06T17:12:54.098Z,2.30
2023-02-06T17:15:21.511Z,2.20
2023-02-06T17:17:48.836Z,2.20
2023-02-06T17:20:35.005Z,2.00
2023-02-06T17:23:02.619Z,1.90
2023-02-06T17:25:30.284Z,2.00
2023-02-06T17:27:58.145Z,2.10
2023-02-06T17:30:26.149Z,2.20
2023-02-06T17:32:54.127Z,2.10
2023-02-06T17:35:21.575Z,2.10
2023-02-06T17:37:49.234Z,1.90
2023-02-06T17:40:20.162Z,1.80
2023-02-06T17:42:48.825Z,1.90
2023-02-06T17:45:16.441Z,1.90
2023-02-06T17:47:44.441Z,2.00
2023-02-06T17:50:20.272Z,2.00
2023-02-06T17:52:48.358Z,1.90
2023-02-06T17:55:17.039Z,1.90
2023-02-06T17:57:44.458Z,1.90
2023-02-06T18:00:15.307Z,1.80
2023-02-06T18:02:42.959Z,1.70
2023-02-06T18:05:11.006Z,1.60
2023-02-06T18:07:39.082Z,1.60
2023-02-06T18:10:08.212Z,1.50
2023-02-06T18:12:36.079Z,1.40
2023-02-06T18:15:05.270Z,1.40
2023-02-06T18:17:32.765Z,1.40
2023-02-06T18:20:00.363Z,1.40
2023-02-06T18:22:27.853Z,1.40
2023-02-06T18:24:55.119Z,1.40
2023-02-06T18:27:23.198Z,1.40
2023-02-06T18:29:54.869Z,1.50
2023-02-06T18:32:22.287Z,1.60
2023-02-06T18:34:49.733Z,1.80
2023-02-06T18:37:17.170Z,1.90
2023-02-06T18:39:44.575Z,2.00
2023-02-06T18:42:31.374Z,2.20
2023-02-06T18:44:58.637Z,2.30
2023-02-06T18:47:25.906Z,2.50
2023-02-06T18:49:53.245Z,2.70
2023-02-06T18:52:20.752Z,2.90
2023-02-06T18:54:48.736Z,3.00
2023-02-06T18:57:16.020Z,3.10
2023-02-06T18:59:43.332Z,3.20
2023-02-06T19:02:11.765Z,3.20
2023-02-06T19:04:40.540Z,3.10
2023-02-06T19:07:08.916Z,3.00
2023-02-06T19:09:36.177Z,2.90
2023-02-06T19:12:03.978Z,2.80
2023-02-06T19:14:31.242Z,2.70
2023-02-06T19:16:58.603Z,2.60
2023-02-06T19:19:26.045Z,2.50
2023-02-06T19:21:53.555Z,2.40
2023-02-06T19:24:20.810Z,2.30
2023-02-06T19:26:48.223Z,2.50
2023-02-06T19:29:34.402Z,2.60
2023-02-06T19:32:07.609Z,2.70
2023-02-06T19:34:37.116Z,3.00
2023-02-06T19:37:06.240Z,3.20
2023-02-06T19:39:34.436Z,3.30
2023-02-06T19:42:04.562Z,3.40
2023-02-06T19:44:33.465Z,3.50
2023-02-06T19:47:00.757Z,3.50
2023-02-06T19:49:28.095Z,3.30
2023-02-06T19:51:55.466Z,3.10
2023-02-06T19:54:22.771Z,3.10
2023-02-06T19:56:50.152Z,3.10
2023-02-06T19:59:26.259Z,3.10
2023-02-06T20:01:58.765Z,3.40
2023-02-06T20:04:29.085Z,3.50
2023-02-06T20:06:57.285Z,3.50
2023-02-06T20:09:25.750Z,3.40
2023-02-06T20:11:53.116Z,3.20
2023-02-06T20:14:20.907Z,3.00
2023-02-06T20:16:49.252Z,2.80
2023-02-06T20:19:24.342Z,2.70
2023-02-06T20:21:54.791Z,2.70
2023-02-06T20:24:25.647Z,2.60
2023-02-06T20:26:56.311Z,2.50
2023-02-06T20:29:29.341Z,2.60
2023-02-06T20:31:57.458Z,2.60
2023-02-06T20:34:25.778Z,2.60
2023-02-06T20:36:54.611Z,2.80
2023-02-06T20:39:22.276Z,2.80
2023-02-06T20:41:50.358Z,2.70
2023-02-06T20:44:19.879Z,2.50
2023-02-06T20:46:47.542Z,2.40
2023-02-06T20:49:27.565Z,2.30
2023-02-06T20:51:55.194Z,2.10
2023-02-06T20:54:23.764Z,2.00
2023-02-06T20:56:51.683Z,1.80
2023-02-06T20:59:20.168Z,1.60
2023-02-06T21:01:50.777Z,1.50
2023-02-06T21:04:28.013Z,1.50
2023-02-06T21:06:56.589Z,1.70
2023-02-06T21:09:26.799Z,1.50
2023-02-06T21:11:54.491Z,1.30
2023-02-06T21:14:22.244Z,1.20
2023-02-06T21:16:52.908Z,1.00
2023-02-06T21:19:21.542Z,0.90
2023-02-06T21:21:52.007Z,0.80
2023-02-06T21:24:19.436Z,0.70
2023-02-06T21:26:47.385Z,0.60
2023-02-06T21:29:16.343Z,0.50
2023-02-06T21:31:46.609Z,0.40
2023-02-06T21:34:18.074Z,0.20
2023-02-06T21:36:47.613Z,0.10
2023-02-06T21:39:22.929Z,0.30
2023-02-06T21:41:59.640Z,0.20
2023-02-06T21:44:29.267Z,0.20
2023-02-06T21:46:57.629Z,0.30
2023-02-06T21:49:25.366Z,0.30
2023-02-06T21:51:54.702Z,0.20
2023-02-06T21:54:23.208Z,0.10
2023-02-06T21:56:51.789Z,0.00
2023-02-06T21:59:21.506Z,-0.10
2023-02-06T22:01:50.212Z,-0.30
2023-02-06T22:04:18.782Z,-0.40
2023-02-06T22:06:48.158Z,-0.30
2023-02-06T22:09:16.899Z,-0.20
2023-02-06T22:11:46.608Z,-0.20
2023-02-06T22:14:18.283Z,-0.20
2023-02-06T22:16:46.912Z,-0.20
2023-02-06T22:19:15.838Z,-0.20
2023-02-06T22:21:44.908Z,-0.10
2023-02-06T22:24:15.241Z,0.10
2023-02-06T22:26:44.393Z,0.10
2023-02-06T22:29:15.651Z,0.10
2023-02-06T22:31:45.169Z,0.10
2023-02-06T22:34:21.086Z,0.20
2023-02-06T22:36:51.431Z,0.20
2023-02-06T22:39:19.684Z,0.20
2023-02-06T22:41:55.331Z,0.30
2023-02-06T22:44:23.015Z,0.30
2023-02-06T22:46:53.303Z,0.30
2023-02-06T22:49:24.208Z,0.40
2023-02-06T22:51:52.202Z,0.40
2023-02-06T22:54:21.245Z,0.40
2023-02-06T22:56:48.963Z,0.50
2023-02-06T22:59:25.324Z,0.50
2023-02-06T23:01:58.144Z,0.50
2023-02-06T23:04:29.882Z,0.40
2023-02-06T23:06:57.750Z,0.40
2023-02-06T23:09:28.557Z,0.50
2023-02-06T23:11:58.398Z,0.40
2023-02-06T23:14:27.481Z,0.40
2023-02-06T23:16:54.991Z,0.40
2023-02-06T23:19:22.692Z,0.30
2023-02-06T23:21:53.999Z,0.30
2023-02-06T23:24:21.310Z,0.40
2023-02-06T23:26:50.887Z,0.60
2023-02-06T23:29:19.377Z,0.70
2023-02-06T23:31:47.621Z,0.70
2023-02-06T23:34:16.191Z,0.60
2023-02-06T23:36:43.818Z,0.40
2023-02-06T23:39:11.930Z,0.30
2023-02-06T23:41:39.659Z,0.20
2023-02-06T23:44:08.181Z,0.00
2023-02-06T23:46:38.129Z,-0.10
2023-02-06T23:49:06.387Z,-0.10
2023-02-06T23:51:35.040Z,-0.30
2023-02-06T23:54:02.615Z,-0.40
2023-02-06T23:56:31.262Z,-0.50
2023-02-06T23:59:00.809Z,-0.50
